sensor_id;sensor_type;location;lat;lon;timestamp;temperature;humidity
21403;DHT22;10862;51.886;17.078;2022-12-29T00:02:01;6.50;99.90
21403;DHT22;10862;51.886;17.078;2022-12-29T00:04:26;6.50;99.90
21403;DHT22;10862;51.886;17.078;2022-12-29T00:06:53;6.50;99.90
21403;DHT22;10862;51.886;17.078;2022-12-29T00:09:19;6.50;99.90
21403;DHT22;10862;51.886;17.078;2022-12-29T00:11:45;6.50;99.90
21403;DHT22;10862;51.886;17.078;2022-12-29T00:14:12;6.50;99.90
21403;DHT22;10862;51.886;17.078;2022-12-29T00:16:56;6.50;99.90
21403;DHT22;10862;51.886;17.078;2022-12-29T00:19:22;6.50;99.90
21403;DHT22;10862;51.886;17.078;2022-12-29T00:22:10;6.50;99.90
21403;DHT22;10862;51.886;17.078;2022-12-29T00:24:54;6.50;99.90
21403;DHT22;10862;51.886;17.078;2022-12-29T00:27:39;6.50;99.90
21403;DHT22;10862;51.886;17.078;2022-12-29T00:30:23;6.50;99.90
21403;DHT22;10862;51.886;17.078;2022-12-29T00:33:15;6.50;99.90
21403;DHT22;10862;51.886;17.078;2022-12-29T00:38:58;6.50;99.90
21403;DHT22;10862;51.886;17.078;2022-12-29T00:41:43;6.50;99.90
21403;DHT22;10862;51.886;17.078;2022-12-29T00:44:27;6.50;99.90
21403;DHT22;10862;51.886;17.078;2022-12-29T00:46:52;6.50;99.90
21403;DHT22;10862;51.886;17.078;2022-12-29T00:49:18;6.50;99.90
21403;DHT22;10862;51.886;17.078;2022-12-29T00:54:23;6.50;99.90
21403;DHT22;10862;51.886;17.078;2022-12-29T00:56:51;6.50;99.90
21403;DHT22;10862;51.886;17.078;2022-12-29T00:59:17;6.50;99.90
21403;DHT22;10862;51.886;17.078;2022-12-29T01:01:44;6.60;99.90
21403;DHT22;10862;51.886;17.078;2022-12-29T01:04:10;6.50;99.90
21403;DHT22;10862;51.886;17.078;2022-12-29T01:06:39;6.50;99.90
21403;DHT22;10862;51.886;17.078;2022-12-29T01:09:07;6.50;99.90
21403;DHT22;10862;51.886;17.078;2022-12-29T01:11:52;6.50;99.90
21403;DHT22;10862;51.886;17.078;2022-12-29T01:14:18;6.60;99.90
21403;DHT22;10862;51.886;17.078;2022-12-29T01:16:44;6.60;99.90
21403;DHT22;10862;51.886;17.078;2022-12-29T01:19:10;6.60;99.90
21403;DHT22;10862;51.886;17.078;2022-12-29T01:21:36;6.60;99.90
21403;DHT22;10862;51.886;17.078;2022-12-29T01:24:03;6.60;99.90
21403;DHT22;10862;51.886;17.078;2022-12-29T01:26:28;6.60;99.90
21403;DHT22;10862;51.886;17.078;2022-12-29T01:28:54;6.70;99.90
21403;DHT22;10862;51.886;17.078;2022-12-29T01:31:20;6.70;99.90
21403;DHT22;10862;51.886;17.078;2022-12-29T01:33:46;6.70;99.90
21403;DHT22;10862;51.886;17.078;2022-12-29T01:36:13;6.70;99.90
21403;DHT22;10862;51.886;17.078;2022-12-29T01:38:40;6.70;99.90
21403;DHT22;10862;51.886;17.078;2022-12-29T01:41:08;6.70;99.90
21403;DHT22;10862;51.886;17.078;2022-12-29T01:43:47;6.80;99.90
21403;DHT22;10862;51.886;17.078;2022-12-29T01:46:39;6.80;99.90
21403;DHT22;10862;51.886;17.078;2022-12-29T01:49:38;6.80;99.90
21403;DHT22;10862;51.886;17.078;2022-12-29T01:52:01;6.80;99.90
21403;DHT22;10862;51.886;17.078;2022-12-29T01:54:32;6.80;99.90
21403;DHT22;10862;51.886;17.078;2022-12-29T01:57:03;6.80;99.90
21403;DHT22;10862;51.886;17.078;2022-12-29T01:59:34;6.80;99.90
21403;DHT22;10862;51.886;17.078;2022-12-29T02:02:00;6.70;99.90
21403;DHT22;10862;51.886;17.078;2022-12-29T02:04:27;6.70;99.90
21403;DHT22;10862;51.886;17.078;2022-12-29T02:07:07;6.70;99.90
21403;DHT22;10862;51.886;17.078;2022-12-29T02:09:34;6.70;99.90
21403;DHT22;10862;51.886;17.078;2022-12-29T02:12:01;6.70;99.90
21403;DHT22;10862;51.886;17.078;2022-12-29T02:14:27;6.70;99.90
21403;DHT22;10862;51.886;17.078;2022-12-29T02:25:13;6.70;99.90
21403;DHT22;10862;51.886;17.078;2022-12-29T02:28:09;6.70;99.90
21403;DHT22;10862;51.886;17.078;2022-12-29T02:31:00;6.70;99.90
21403;DHT22;10862;51.886;17.078;2022-12-29T02:33:40;6.70;99.90
21403;DHT22;10862;51.886;17.078;2022-12-29T02:36:31;6.70;99.90
21403;DHT22;10862;51.886;17.078;2022-12-29T02:39:14;6.70;99.90
21403;DHT22;10862;51.886;17.078;2022-12-29T02:42:03;6.70;99.90
21403;DHT22;10862;51.886;17.078;2022-12-29T02:49:59;6.70;99.90
21403;DHT22;10862;51.886;17.078;2022-12-29T02:52:31;6.70;99.90
21403;DHT22;10862;51.886;17.078;2022-12-29T02:54:59;6.70;99.90
21403;DHT22;10862;51.886;17.078;2022-12-29T03:00:07;6.70;99.90
21403;DHT22;10862;51.886;17.078;2022-12-29T03:08:55;6.70;99.90
21403;DHT22;10862;51.886;17.078;2022-12-29T03:11:27;6.70;99.90
21403;DHT22;10862;51.886;17.078;2022-12-29T03:14:27;6.70;99.90
21403;DHT22;10862;51.886;17.078;2022-12-29T03:18:02;6.60;99.90
21403;DHT22;10862;51.886;17.078;2022-12-29T03:20:10;6.50;99.90
21403;DHT22;10862;51.886;17.078;2022-12-29T03:22:43;6.50;99.90
21403;DHT22;10862;51.886;17.078;2022-12-29T03:25:23;6.40;99.90
21403;DHT22;10862;51.886;17.078;2022-12-29T03:27:55;6.40;99.90
21403;DHT22;10862;51.886;17.078;2022-12-29T03:30:22;6.40;99.90
21403;DHT22;10862;51.886;17.078;2022-12-29T03:32:55;6.40;99.90
21403;DHT22;10862;51.886;17.078;2022-12-29T03:35:25;6.40;99.90
21403;DHT22;10862;51.886;17.078;2022-12-29T03:40:38;6.40;99.90
21403;DHT22;10862;51.886;17.078;2022-12-29T03:43:05;6.40;99.90
21403;DHT22;10862;51.886;17.078;2022-12-29T03:45:31;6.40;99.90
21403;DHT22;10862;51.886;17.078;2022-12-29T03:47:57;6.50;99.90
21403;DHT22;10862;51.886;17.078;2022-12-29T03:50:22;6.50;99.90
21403;DHT22;10862;51.886;17.078;2022-12-29T03:52:48;6.50;99.90
21403;DHT22;10862;51.886;17.078;2022-12-29T03:55:14;6.50;99.90
21403;DHT22;10862;51.886;17.078;2022-12-29T03:57:39;6.60;99.90
21403;DHT22;10862;51.886;17.078;2022-12-29T04:00:06;6.70;99.90
21403;DHT22;10862;51.886;17.078;2022-12-29T04:02:32;6.70;99.90
21403;DHT22;10862;51.886;17.078;2022-12-29T04:04:58;6.70;99.90
21403;DHT22;10862;51.886;17.078;2022-12-29T04:07:23;6.70;99.90
21403;DHT22;10862;51.886;17.078;2022-12-29T04:09:49;6.60;99.90
21403;DHT22;10862;51.886;17.078;2022-12-29T04:12:15;6.60;99.90
21403;DHT22;10862;51.886;17.078;2022-12-29T04:14:40;6.70;99.90
21403;DHT22;10862;51.886;17.078;2022-12-29T04:17:06;6.70;99.90
21403;DHT22;10862;51.886;17.078;2022-12-29T04:19:32;6.60;99.90
21403;DHT22;10862;51.886;17.078;2022-12-29T04:21:58;6.70;99.90
21403;DHT22;10862;51.886;17.078;2022-12-29T04:24:24;6.70;99.90
21403;DHT22;10862;51.886;17.078;2022-12-29T04:26:49;6.80;99.90
21403;DHT22;10862;51.886;17.078;2022-12-29T04:29:15;6.80;99.90
21403;DHT22;10862;51.886;17.078;2022-12-29T04:31:41;6.70;99.90
21403;DHT22;10862;51.886;17.078;2022-12-29T04:34:07;6.70;99.90
21403;DHT22;10862;51.886;17.078;2022-12-29T04:36:33;6.70;99.90
21403;DHT22;10862;51.886;17.078;2022-12-29T04:38:58;6.70;99.90
21403;DHT22;10862;51.886;17.078;2022-12-29T04:41:24;6.70;99.90
21403;DHT22;10862;51.886;17.078;2022-12-29T04:43:50;6.70;99.90
21403;DHT22;10862;51.886;17.078;2022-12-29T04:46:16;6.70;99.90
21403;DHT22;10862;51.886;17.078;2022-12-29T04:48:42;6.70;99.90
21403;DHT22;10862;51.886;17.078;2022-12-29T04:51:07;6.70;99.90
21403;DHT22;10862;51.886;17.078;2022-12-29T04:53:33;6.70;99.90
21403;DHT22;10862;51.886;17.078;2022-12-29T04:55:59;6.70;99.90
21403;DHT22;10862;51.886;17.078;2022-12-29T04:58:24;6.70;99.90
21403;DHT22;10862;51.886;17.078;2022-12-29T05:00:51;6.80;99.90
21403;DHT22;10862;51.886;17.078;2022-12-29T05:03:17;6.70;99.90
21403;DHT22;10862;51.886;17.078;2022-12-29T05:05:43;6.70;99.90
21403;DHT22;10862;51.886;17.078;2022-12-29T05:08:09;6.80;99.90
21403;DHT22;10862;51.886;17.078;2022-12-29T05:10:35;6.80;99.90
21403;DHT22;10862;51.886;17.078;2022-12-29T05:13:00;6.80;99.90
21403;DHT22;10862;51.886;17.078;2022-12-29T05:15:26;6.80;99.90
21403;DHT22;10862;51.886;17.078;2022-12-29T05:17:52;6.80;99.90
21403;DHT22;10862;51.886;17.078;2022-12-29T05:20:18;6.80;99.90
21403;DHT22;10862;51.886;17.078;2022-12-29T05:22:44;6.80;99.90
21403;DHT22;10862;51.886;17.078;2022-12-29T05:25:10;6.80;99.90
21403;DHT22;10862;51.886;17.078;2022-12-29T05:27:35;6.90;99.90
21403;DHT22;10862;51.886;17.078;2022-12-29T05:30:01;6.90;99.90
21403;DHT22;10862;51.886;17.078;2022-12-29T05:32:27;6.90;99.90
21403;DHT22;10862;51.886;17.078;2022-12-29T05:34:52;7.00;99.90
21403;DHT22;10862;51.886;17.078;2022-12-29T05:37:18;7.00;99.90
21403;DHT22;10862;51.886;17.078;2022-12-29T05:39:44;7.00;99.90
21403;DHT22;10862;51.886;17.078;2022-12-29T05:42:10;7.00;99.90
21403;DHT22;10862;51.886;17.078;2022-12-29T05:44:35;7.00;99.90
21403;DHT22;10862;51.886;17.078;2022-12-29T05:47:01;7.00;99.90
21403;DHT22;10862;51.886;17.078;2022-12-29T05:49:27;7.00;99.90
21403;DHT22;10862;51.886;17.078;2022-12-29T05:51:53;7.00;99.90
21403;DHT22;10862;51.886;17.078;2022-12-29T05:54:18;7.00;99.90
21403;DHT22;10862;51.886;17.078;2022-12-29T05:56:44;7.10;99.90
21403;DHT22;10862;51.886;17.078;2022-12-29T05:59:10;7.10;99.90
21403;DHT22;10862;51.886;17.078;2022-12-29T06:01:35;7.10;99.90
21403;DHT22;10862;51.886;17.078;2022-12-29T06:04:01;7.10;99.90
21403;DHT22;10862;51.886;17.078;2022-12-29T06:06:27;7.10;99.90
21403;DHT22;10862;51.886;17.078;2022-12-29T06:08:53;7.20;99.90
21403;DHT22;10862;51.886;17.078;2022-12-29T06:11:18;7.20;99.90
21403;DHT22;10862;51.886;17.078;2022-12-29T06:13:44;7.30;99.90
21403;DHT22;10862;51.886;17.078;2022-12-29T06:16:10;7.20;99.90
21403;DHT22;10862;51.886;17.078;2022-12-29T06:18:35;7.30;99.90
21403;DHT22;10862;51.886;17.078;2022-12-29T06:21:02;7.40;99.90
21403;DHT22;10862;51.886;17.078;2022-12-29T06:23:28;7.40;99.90
21403;DHT22;10862;51.886;17.078;2022-12-29T06:25:54;7.40;99.90
21403;DHT22;10862;51.886;17.078;2022-12-29T06:28:20;7.30;99.90
21403;DHT22;10862;51.886;17.078;2022-12-29T06:30:46;7.30;99.90
21403;DHT22;10862;51.886;17.078;2022-12-29T06:33:12;7.30;99.90
21403;DHT22;10862;51.886;17.078;2022-12-29T06:35:38;7.30;99.90
21403;DHT22;10862;51.886;17.078;2022-12-29T06:38:04;7.30;99.90
21403;DHT22;10862;51.886;17.078;2022-12-29T06:40:30;7.30;99.90
21403;DHT22;10862;51.886;17.078;2022-12-29T06:42:55;7.30;99.90
21403;DHT22;10862;51.886;17.078;2022-12-29T06:45:21;7.30;99.90
21403;DHT22;10862;51.886;17.078;2022-12-29T06:47:47;7.30;99.90
21403;DHT22;10862;51.886;17.078;2022-12-29T06:50:12;7.20;99.90
21403;DHT22;10862;51.886;17.078;2022-12-29T06:52:38;7.30;99.90
21403;DHT22;10862;51.886;17.078;2022-12-29T06:55:04;7.30;99.90
21403;DHT22;10862;51.886;17.078;2022-12-29T06:57:30;7.30;99.90
21403;DHT22;10862;51.886;17.078;2022-12-29T06:59:56;7.30;99.90
21403;DHT22;10862;51.886;17.078;2022-12-29T07:02:22;7.20;99.90
21403;DHT22;10862;51.886;17.078;2022-12-29T07:04:51;7.20;99.90
21403;DHT22;10862;51.886;17.078;2022-12-29T07:07:18;7.20;99.90
21403;DHT22;10862;51.886;17.078;2022-12-29T07:09:43;7.20;99.90
21403;DHT22;10862;51.886;17.078;2022-12-29T07:12:09;7.20;99.90
21403;DHT22;10862;51.886;17.078;2022-12-29T07:14:35;7.20;99.90
21403;DHT22;10862;51.886;17.078;2022-12-29T07:17:01;7.20;99.90
21403;DHT22;10862;51.886;17.078;2022-12-29T07:19:31;7.20;99.90
21403;DHT22;10862;51.886;17.078;2022-12-29T07:21:56;7.20;99.90
21403;DHT22;10862;51.886;17.078;2022-12-29T07:24:22;7.20;99.90
21403;DHT22;10862;51.886;17.078;2022-12-29T07:26:48;7.30;99.90
21403;DHT22;10862;51.886;17.078;2022-12-29T07:29:13;7.30;99.90
21403;DHT22;10862;51.886;17.078;2022-12-29T07:31:39;7.20;99.90
21403;DHT22;10862;51.886;17.078;2022-12-29T07:34:05;7.30;99.90
21403;DHT22;10862;51.886;17.078;2022-12-29T07:36:30;7.30;99.90
21403;DHT22;10862;51.886;17.078;2022-12-29T07:38:56;7.30;99.90
21403;DHT22;10862;51.886;17.078;2022-12-29T07:41:22;7.30;99.90
21403;DHT22;10862;51.886;17.078;2022-12-29T07:43:47;7.30;99.90
21403;DHT22;10862;51.886;17.078;2022-12-29T07:46:16;7.40;99.90
21403;DHT22;10862;51.886;17.078;2022-12-29T07:48:41;7.40;99.90
21403;DHT22;10862;51.886;17.078;2022-12-29T07:51:07;7.40;99.90
21403;DHT22;10862;51.886;17.078;2022-12-29T07:53:33;7.40;99.90
21403;DHT22;10862;51.886;17.078;2022-12-29T07:55:58;7.40;99.90
21403;DHT22;10862;51.886;17.078;2022-12-29T07:58:24;7.40;99.90
21403;DHT22;10862;51.886;17.078;2022-12-29T08:00:57;7.40;99.90
21403;DHT22;10862;51.886;17.078;2022-12-29T08:03:23;7.40;99.90
21403;DHT22;10862;51.886;17.078;2022-12-29T08:05:51;7.40;99.90
21403;DHT22;10862;51.886;17.078;2022-12-29T08:08:17;7.40;99.90
21403;DHT22;10862;51.886;17.078;2022-12-29T08:10:43;7.40;99.90
21403;DHT22;10862;51.886;17.078;2022-12-29T08:13:09;7.40;99.90
21403;DHT22;10862;51.886;17.078;2022-12-29T08:15:34;7.40;99.90
21403;DHT22;10862;51.886;17.078;2022-12-29T08:18:02;7.40;99.90
21403;DHT22;10862;51.886;17.078;2022-12-29T08:20:28;7.40;99.90
21403;DHT22;10862;51.886;17.078;2022-12-29T08:22:54;7.40;99.90
21403;DHT22;10862;51.886;17.078;2022-12-29T08:25:19;7.50;99.90
21403;DHT22;10862;51.886;17.078;2022-12-29T08:27:45;7.50;99.90
21403;DHT22;10862;51.886;17.078;2022-12-29T08:30:11;7.50;99.90
21403;DHT22;10862;51.886;17.078;2022-12-29T08:32:37;7.60;99.90
21403;DHT22;10862;51.886;17.078;2022-12-29T08:35:03;7.60;99.90
21403;DHT22;10862;51.886;17.078;2022-12-29T08:37:29;7.70;99.90
21403;DHT22;10862;51.886;17.078;2022-12-29T08:39:55;7.70;99.90
21403;DHT22;10862;51.886;17.078;2022-12-29T08:42:20;7.70;99.90
21403;DHT22;10862;51.886;17.078;2022-12-29T08:44:46;7.80;99.90
21403;DHT22;10862;51.886;17.078;2022-12-29T08:47:12;7.80;99.90
21403;DHT22;10862;51.886;17.078;2022-12-29T08:49:37;7.80;99.90
21403;DHT22;10862;51.886;17.078;2022-12-29T08:52:03;7.80;99.90
21403;DHT22;10862;51.886;17.078;2022-12-29T08:54:29;7.80;99.90
21403;DHT22;10862;51.886;17.078;2022-12-29T08:56:55;7.80;99.90
21403;DHT22;10862;51.886;17.078;2022-12-29T08:59:21;7.80;99.90
21403;DHT22;10862;51.886;17.078;2022-12-29T09:01:46;7.80;99.90
21403;DHT22;10862;51.886;17.078;2022-12-29T09:04:12;7.80;99.90
21403;DHT22;10862;51.886;17.078;2022-12-29T09:06:38;7.90;99.90
21403;DHT22;10862;51.886;17.078;2022-12-29T09:09:03;7.90;99.90
21403;DHT22;10862;51.886;17.078;2022-12-29T09:11:29;7.90;99.90
21403;DHT22;10862;51.886;17.078;2022-12-29T09:13:55;7.90;99.90
21403;DHT22;10862;51.886;17.078;2022-12-29T09:16:22;8.00;99.90
21403;DHT22;10862;51.886;17.078;2022-12-29T09:18:49;8.10;99.90
21403;DHT22;10862;51.886;17.078;2022-12-29T09:21:15;8.30;99.90
21403;DHT22;10862;51.886;17.078;2022-12-29T09:23:40;8.40;99.90
21403;DHT22;10862;51.886;17.078;2022-12-29T09:26:07;8.40;99.90
21403;DHT22;10862;51.886;17.078;2022-12-29T09:28:33;8.60;99.90
21403;DHT22;10862;51.886;17.078;2022-12-29T09:30:59;8.40;99.90
21403;DHT22;10862;51.886;17.078;2022-12-29T09:33:26;8.50;99.90
21403;DHT22;10862;51.886;17.078;2022-12-29T09:35:57;8.40;99.90
21403;DHT22;10862;51.886;17.078;2022-12-29T09:38:24;8.30;99.90
21403;DHT22;10862;51.886;17.078;2022-12-29T09:40:53;8.30;99.90
21403;DHT22;10862;51.886;17.078;2022-12-29T09:46:25;8.40;99.90
21403;DHT22;10862;51.886;17.078;2022-12-29T09:51:44;8.40;99.90
21403;DHT22;10862;51.886;17.078;2022-12-29T09:57:10;8.60;99.90
21403;DHT22;10862;51.886;17.078;2022-12-29T09:59:42;8.60;99.90
21403;DHT22;10862;51.886;17.078;2022-12-29T10:04:56;8.90;99.90
21403;DHT22;10862;51.886;17.078;2022-12-29T10:07:47;8.80;99.90
21403;DHT22;10862;51.886;17.078;2022-12-29T10:10:30;8.70;99.90
21403;DHT22;10862;51.886;17.078;2022-12-29T10:15:37;8.70;99.90
21403;DHT22;10862;51.886;17.078;2022-12-29T10:21:25;8.60;99.90
21403;DHT22;10862;51.886;17.078;2022-12-29T10:23:54;8.60;99.90
21403;DHT22;10862;51.886;17.078;2022-12-29T10:26:30;8.60;99.90
21403;DHT22;10862;51.886;17.078;2022-12-29T10:29:05;8.50;99.90
21403;DHT22;10862;51.886;17.078;2022-12-29T10:31:41;8.50;99.90
21403;DHT22;10862;51.886;17.078;2022-12-29T10:34:21;8.60;99.90
21403;DHT22;10862;51.886;17.078;2022-12-29T10:36:49;8.60;99.90
21403;DHT22;10862;51.886;17.078;2022-12-29T10:39:25;8.50;99.90
21403;DHT22;10862;51.886;17.078;2022-12-29T10:42:12;8.60;99.90
21403;DHT22;10862;51.886;17.078;2022-12-29T10:44:39;8.50;99.90
21403;DHT22;10862;51.886;17.078;2022-12-29T10:47:10;8.50;99.90
21403;DHT22;10862;51.886;17.078;2022-12-29T10:49:40;8.50;99.90
21403;DHT22;10862;51.886;17.078;2022-12-29T10:52:07;8.50;99.90
21403;DHT22;10862;51.886;17.078;2022-12-29T10:54:54;8.50;99.90
21403;DHT22;10862;51.886;17.078;2022-12-29T10:57:42;8.50;99.90
21403;DHT22;10862;51.886;17.078;2022-12-29T11:00:16;8.60;99.90
21403;DHT22;10862;51.886;17.078;2022-12-29T11:08:14;8.90;99.90
21403;DHT22;10862;51.886;17.078;2022-12-29T11:10:42;9.00;99.90
21403;DHT22;10862;51.886;17.078;2022-12-29T11:13:17;9.00;99.90
21403;DHT22;10862;51.886;17.078;2022-12-29T11:15:48;9.10;99.90
21403;DHT22;10862;51.886;17.078;2022-12-29T11:18:26;9.20;99.90
21403;DHT22;10862;51.886;17.078;2022-12-29T11:20:57;9.20;99.90
21403;DHT22;10862;51.886;17.078;2022-12-29T11:23:35;9.30;99.90
21403;DHT22;10862;51.886;17.078;2022-12-29T11:28:41;9.50;99.90
21403;DHT22;10862;51.886;17.078;2022-12-29T11:31:08;9.60;99.90
21403;DHT22;10862;51.886;17.078;2022-12-29T11:33:35;9.70;99.90
21403;DHT22;10862;51.886;17.078;2022-12-29T11:36:11;9.80;99.90
21403;DHT22;10862;51.886;17.078;2022-12-29T11:38:46;9.80;99.90
21403;DHT22;10862;51.886;17.078;2022-12-29T11:41:28;9.90;99.90
21403;DHT22;10862;51.886;17.078;2022-12-29T11:44:00;10.00;99.90
21403;DHT22;10862;51.886;17.078;2022-12-29T11:48:55;9.90;99.90
21403;DHT22;10862;51.886;17.078;2022-12-29T11:51:29;9.90;99.90
21403;DHT22;10862;51.886;17.078;2022-12-29T11:54:00;9.90;99.90
21403;DHT22;10862;51.886;17.078;2022-12-29T11:56:37;10.00;99.90
21403;DHT22;10862;51.886;17.078;2022-12-29T12:05:02;10.00;99.90
21403;DHT22;10862;51.886;17.078;2022-12-29T12:07:49;10.10;99.90
21403;DHT22;10862;51.886;17.078;2022-12-29T12:10:27;10.10;99.90
21403;DHT22;10862;51.886;17.078;2022-12-29T12:19:08;10.20;99.90
21403;DHT22;10862;51.886;17.078;2022-12-29T12:21:40;10.30;99.90
21403;DHT22;10862;51.886;17.078;2022-12-29T12:27:26;10.30;99.90
21403;DHT22;10862;51.886;17.078;2022-12-29T12:32:56;10.30;99.90
21403;DHT22;10862;51.886;17.078;2022-12-29T12:35:43;10.30;99.90
21403;DHT22;10862;51.886;17.078;2022-12-29T12:43:44;10.20;99.90
21403;DHT22;10862;51.886;17.078;2022-12-29T12:57:23;10.20;96.60
21403;DHT22;10862;51.886;17.078;2022-12-29T13:00:13;10.20;97.40
21403;DHT22;10862;51.886;17.078;2022-12-29T13:03:05;10.10;97.20
21403;DHT22;10862;51.886;17.078;2022-12-29T13:30:18;9.60;97.40
21403;DHT22;10862;51.886;17.078;2022-12-29T13:38:05;9.50;99.90
21403;DHT22;10862;51.886;17.078;2022-12-29T13:40:40;9.40;99.90
21403;DHT22;10862;51.886;17.078;2022-12-29T13:43:07;9.40;99.90
21403;DHT22;10862;51.886;17.078;2022-12-29T13:45:34;9.30;99.90
21403;DHT22;10862;51.886;17.078;2022-12-29T13:48:21;9.30;99.90
21403;DHT22;10862;51.886;17.078;2022-12-29T13:50:54;9.30;99.90
21403;DHT22;10862;51.886;17.078;2022-12-29T13:53:34;9.20;99.90
21403;DHT22;10862;51.886;17.078;2022-12-29T13:56:08;9.20;99.90
21403;DHT22;10862;51.886;17.078;2022-12-29T13:58:50;9.10;99.90
21403;DHT22;10862;51.886;17.078;2022-12-29T14:01:31;9.10;99.90
21403;DHT22;10862;51.886;17.078;2022-12-29T14:04:09;9.00;99.90
21403;DHT22;10862;51.886;17.078;2022-12-29T14:06:36;9.00;99.90
21403;DHT22;10862;51.886;17.078;2022-12-29T14:09:26;9.00;99.90
21403;DHT22;10862;51.886;17.078;2022-12-29T14:11:52;9.00;99.90
21403;DHT22;10862;51.886;17.078;2022-12-29T14:14:22;9.00;99.90
21403;DHT22;10862;51.886;17.078;2022-12-29T14:16:49;8.90;99.90
21403;DHT22;10862;51.886;17.078;2022-12-29T14:19:18;8.90;99.90
21403;DHT22;10862;51.886;17.078;2022-12-29T14:21:53;8.90;99.90
21403;DHT22;10862;51.886;17.078;2022-12-29T14:24:43;8.90;99.90
21403;DHT22;10862;51.886;17.078;2022-12-29T14:34:54;8.80;99.90
21403;DHT22;10862;51.886;17.078;2022-12-29T14:37:30;8.80;99.90
21403;DHT22;10862;51.886;17.078;2022-12-29T14:40:18;8.80;99.90
21403;DHT22;10862;51.886;17.078;2022-12-29T14:42:46;8.70;99.90
21403;DHT22;10862;51.886;17.078;2022-12-29T14:47:46;8.60;99.90
21403;DHT22;10862;51.886;17.078;2022-12-29T14:52:53;8.60;99.90
21403;DHT22;10862;51.886;17.078;2022-12-29T14:58:33;8.50;99.90
21403;DHT22;10862;51.886;17.078;2022-12-29T15:01:04;8.60;99.90
21403;DHT22;10862;51.886;17.078;2022-12-29T15:03:48;8.50;99.90
21403;DHT22;10862;51.886;17.078;2022-12-29T15:06:18;8.50;99.90
21403;DHT22;10862;51.886;17.078;2022-12-29T15:08:51;8.50;99.90
21403;DHT22;10862;51.886;17.078;2022-12-29T15:11:22;8.40;99.90
21403;DHT22;10862;51.886;17.078;2022-12-29T15:13:48;8.40;99.90
21403;DHT22;10862;51.886;17.078;2022-12-29T15:16:25;8.30;99.90
21403;DHT22;10862;51.886;17.078;2022-12-29T15:18:52;8.20;99.90
21403;DHT22;10862;51.886;17.078;2022-12-29T15:21:25;8.10;99.90
21403;DHT22;10862;51.886;17.078;2022-12-29T15:23:52;8.10;99.90
21403;DHT22;10862;51.886;17.078;2022-12-29T15:26:18;8.10;99.90
21403;DHT22;10862;51.886;17.078;2022-12-29T15:28:52;8.10;99.90
21403;DHT22;10862;51.886;17.078;2022-12-29T15:31:24;8.10;99.90
21403;DHT22;10862;51.886;17.078;2022-12-29T15:33:54;8.10;99.90
21403;DHT22;10862;51.886;17.078;2022-12-29T15:36:28;8.10;99.90
21403;DHT22;10862;51.886;17.078;2022-12-29T15:38:54;8.00;99.90
21403;DHT22;10862;51.886;17.078;2022-12-29T15:41:25;8.00;99.90
21403;DHT22;10862;51.886;17.078;2022-12-29T15:44:20;8.00;99.90
21403;DHT22;10862;51.886;17.078;2022-12-29T15:46:49;7.90;99.90
21403;DHT22;10862;51.886;17.078;2022-12-29T15:49:15;7.90;99.90
21403;DHT22;10862;51.886;17.078;2022-12-29T15:51:41;7.90;99.90
21403;DHT22;10862;51.886;17.078;2022-12-29T15:54:20;7.80;99.90
21403;DHT22;10862;51.886;17.078;2022-12-29T15:56:47;7.80;99.90
21403;DHT22;10862;51.886;17.078;2022-12-29T15:59:28;7.90;99.90
21403;DHT22;10862;51.886;17.078;2022-12-29T16:01:55;7.90;99.90
21403;DHT22;10862;51.886;17.078;2022-12-29T16:04:22;7.90;99.90
21403;DHT22;10862;51.886;17.078;2022-12-29T16:07:30;7.90;99.90
21403;DHT22;10862;51.886;17.078;2022-12-29T16:09:58;7.90;99.90
21403;DHT22;10862;51.886;17.078;2022-12-29T16:12:35;7.90;99.90
21403;DHT22;10862;51.886;17.078;2022-12-29T16:15:07;7.90;99.90
21403;DHT22;10862;51.886;17.078;2022-12-29T16:17:49;8.00;99.90
21403;DHT22;10862;51.886;17.078;2022-12-29T16:20:34;8.00;99.90
21403;DHT22;10862;51.886;17.078;2022-12-29T16:23:01;8.00;99.90
21403;DHT22;10862;51.886;17.078;2022-12-29T16:25:32;8.10;99.90
21403;DHT22;10862;51.886;17.078;2022-12-29T16:28:01;8.10;99.90
21403;DHT22;10862;51.886;17.078;2022-12-29T16:30:29;8.00;99.90
21403;DHT22;10862;51.886;17.078;2022-12-29T16:32:58;8.00;99.90
21403;DHT22;10862;51.886;17.078;2022-12-29T16:35:28;8.00;99.90
21403;DHT22;10862;51.886;17.078;2022-12-29T16:43:25;7.90;99.90
21403;DHT22;10862;51.886;17.078;2022-12-29T16:50:43;8.10;99.90
21403;DHT22;10862;51.886;17.078;2022-12-29T16:53:28;8.00;99.90
21403;DHT22;10862;51.886;17.078;2022-12-29T16:55:55;7.90;99.90
21403;DHT22;10862;51.886;17.078;2022-12-29T16:58:25;8.00;99.90
21403;DHT22;10862;51.886;17.078;2022-12-29T17:00:56;8.00;99.90
21403;DHT22;10862;51.886;17.078;2022-12-29T17:03:31;8.10;99.90
21403;DHT22;10862;51.886;17.078;2022-12-29T17:05:58;8.10;99.90
21403;DHT22;10862;51.886;17.078;2022-12-29T17:08:24;8.10;99.90
21403;DHT22;10862;51.886;17.078;2022-12-29T17:10:54;8.00;99.90
21403;DHT22;10862;51.886;17.078;2022-12-29T17:13:39;8.00;99.90
21403;DHT22;10862;51.886;17.078;2022-12-29T17:16:07;8.00;99.90
21403;DHT22;10862;51.886;17.078;2022-12-29T17:18:34;8.00;99.90
21403;DHT22;10862;51.886;17.078;2022-12-29T17:21:00;8.00;99.90
21403;DHT22;10862;51.886;17.078;2022-12-29T17:23:26;8.10;99.90
21403;DHT22;10862;51.886;17.078;2022-12-29T17:25:53;8.10;99.90
21403;DHT22;10862;51.886;17.078;2022-12-29T17:28:24;8.10;99.90
21403;DHT22;10862;51.886;17.078;2022-12-29T17:30:57;8.10;99.90
21403;DHT22;10862;51.886;17.078;2022-12-29T17:33:23;8.20;99.90
21403;DHT22;10862;51.886;17.078;2022-12-29T17:35:49;8.20;99.90
21403;DHT22;10862;51.886;17.078;2022-12-29T17:38:29;8.20;99.90
21403;DHT22;10862;51.886;17.078;2022-12-29T17:40:55;8.20;99.90
21403;DHT22;10862;51.886;17.078;2022-12-29T17:43:21;8.10;99.90
21403;DHT22;10862;51.886;17.078;2022-12-29T17:45:52;8.20;99.90
21403;DHT22;10862;51.886;17.078;2022-12-29T17:48:18;8.20;99.90
21403;DHT22;10862;51.886;17.078;2022-12-29T17:50:47;8.30;99.90
21403;DHT22;10862;51.886;17.078;2022-12-29T17:53:17;8.30;99.90
21403;DHT22;10862;51.886;17.078;2022-12-29T17:55:44;8.30;99.90
21403;DHT22;10862;51.886;17.078;2022-12-29T17:58:21;8.30;99.90
21403;DHT22;10862;51.886;17.078;2022-12-29T18:00:49;8.40;99.90
21403;DHT22;10862;51.886;17.078;2022-12-29T18:03:37;8.40;99.90
21403;DHT22;10862;51.886;17.078;2022-12-29T18:06:04;8.30;99.90
21403;DHT22;10862;51.886;17.078;2022-12-29T18:08:34;8.40;99.90
21403;DHT22;10862;51.886;17.078;2022-12-29T18:11:00;8.40;99.90
21403;DHT22;10862;51.886;17.078;2022-12-29T18:13:31;8.40;99.90
21403;DHT22;10862;51.886;17.078;2022-12-29T18:15:57;8.40;99.90
21403;DHT22;10862;51.886;17.078;2022-12-29T18:18:25;8.50;99.90
21403;DHT22;10862;51.886;17.078;2022-12-29T18:20:54;8.40;99.90